Time;durP1;ratioP1;P1;durP2;ratioP2;P2;SDS_P1;SDS_P2;PMS_P1;PMS_P2;Temp;Humidity;BMP_temperature;BMP_pressure;BME280_temperature;BME280_humidity;BME280_pressure;Samples;Min_cycle;Max_cycle;Signal;HPM_P1;HPM_P2
2022/02/21 00:01:24;;;;;;;42.88;26.50;;;;;;;9.02;100.00;101296.63;4881772;29;20041;-72
2022/02/21 00:04:10;;;;;;;38.60;25.20;;;;;;;9.02;100.00;101294.91;4881739;29;20104;-71
2022/02/21 00:06:55;;;;;;;39.72;25.50;;;;;;;9.05;100.00;101296.63;4881712;29;20454;-71
2022/02/21 00:09:41;;;;;;;40.97;26.13;;;;;;;8.89;100.00;101289.69;4880945;29;20371;-72
2022/02/21 00:12:27;;;;;;;43.33;24.98;;;;;;;9.28;100.00;101289.59;4880968;29;20053;-71
2022/02/21 00:15:17;;;;;;;38.20;24.85;;;;;;;9.13;100.00;101287.88;4881523;29;20029;-72
2022/02/21 00:18:03;;;;;;;42.22;25.98;;;;;;;9.02;100.00;101289.69;4881430;29;20040;-72
2022/02/21 00:20:49;;;;;;;40.80;25.80;;;;;;;9.11;100.00;101292.28;4881895;29;20117;-72
2022/02/21 00:23:35;;;;;;;38.97;25.30;;;;;;;9.36;100.00;101295.66;4881606;29;20056;-72
2022/02/21 00:26:21;;;;;;;39.40;25.08;;;;;;;9.22;100.00;101287.00;4881854;29;20431;-72
2022/02/21 00:29:08;;;;;;;39.38;26.05;;;;;;;9.05;100.00;101288.81;4881050;29;20047;-72
2022/02/21 00:31:54;;;;;;;40.85;25.52;;;;;;;9.32;100.00;101289.59;4882012;29;20033;-73
2022/02/21 00:34:40;;;;;;;37.92;24.38;;;;;;;9.13;100.00;101289.66;4881356;29;20037;-72
2022/02/21 00:37:26;;;;;;;38.85;24.52;;;;;;;9.43;100.00;101281.69;4881123;29;20518;-72
2022/02/21 00:40:12;;;;;;;36.33;24.35;;;;;;;9.22;100.00;101273.94;4867343;29;20055;-72
2022/02/21 00:42:58;;;;;;;35.90;23.35;;;;;;;9.06;100.00;101273.13;4882217;29;20040;-72
2022/02/21 00:45:43;;;;;;;41.55;24.45;;;;;;;9.55;100.00;101277.28;4880736;29;20036;-73
2022/02/21 00:48:30;;;;;;;39.28;25.55;;;;;;;9.37;100.00;101268.66;4881641;29;20032;-72
2022/02/21 00:51:16;;;;;;;38.17;24.30;;;;;;;9.35;100.00;101267.78;4881388;29;20112;-72
2022/02/21 00:54:01;;;;;;;41.28;24.33;;;;;;;9.26;100.00;101266.09;4881617;29;20048;-72
2022/02/21 00:56:47;;;;;;;38.70;25.13;;;;;;;8.87;100.00;101263.56;4881151;29;20033;-72
2022/02/21 00:59:33;;;;;;;34.47;23.48;;;;;;;8.94;100.00;101257.47;4880482;29;20454;-72
2022/02/21 01:02:19;;;;;;;34.75;23.48;;;;;;;8.85;100.00;101243.53;4881427;29;20111;-73
2022/02/21 01:05:05;;;;;;;35.45;22.23;;;;;;;8.99;100.00;101246.97;4880917;29;20154;-73
2022/02/21 01:07:51;;;;;;;34.88;22.50;;;;;;;8.73;100.00;101239.19;4866837;29;20033;-72
2022/02/21 01:10:38;;;;;;;37.75;21.73;;;;;;;8.71;100.00;101234.84;4880167;29;20029;-72
2022/02/21 01:13:24;;;;;;;31.58;21.75;;;;;;;8.93;100.00;101231.34;4880861;29;20071;-72
2022/02/21 01:16:09;;;;;;;37.35;22.10;;;;;;;8.65;100.00;101225.28;4880229;29;20037;-71
2022/02/21 01:18:56;;;;;;;33.22;22.75;;;;;;;8.86;100.00;101208.69;4881458;29;20036;-71
2022/02/21 01:21:41;;;;;;;37.63;23.77;;;;;;;8.74;100.00;101217.44;4880509;29;20429;-71
2022/02/21 01:24:27;;;;;;;37.05;23.95;;;;;;;8.88;100.00;101215.66;4879739;29;20029;-72
2022/02/21 01:27:16;;;;;;;37.67;23.90;;;;;;;9.21;100.00;101204.22;4880738;29;20028;-71
2022/02/21 01:30:05;;;;;;;36.00;23.20;;;;;;;9.05;100.00;101207.78;4880965;29;20033;-72
2022/02/21 01:32:51;;;;;;;35.85;23.02;;;;;;;9.24;100.00;101204.19;4880553;29;20029;-72
2022/02/21 01:35:36;;;;;;;36.22;23.30;;;;;;;9.07;100.00;101198.16;4880127;29;20472;-72
2022/02/21 01:38:23;;;;;;;32.65;22.05;;;;;;;8.49;100.00;101194.84;4880229;29;20033;-71
2022/02/21 01:41:08;;;;;;;34.53;22.80;;;;;;;8.75;100.00;101187.84;4880032;29;20108;-73
2022/02/21 01:44:09;;;;;;;33.25;22.42;;;;;;;8.84;100.00;101186.94;4882880;29;20040;-70
2022/02/21 01:46:55;;;;;;;38.42;24.08;;;;;;;8.86;100.00;101187.78;4887883;29;20112;-71
2022/02/21 01:49:41;;;;;;;34.45;22.15;;;;;;;8.77;100.00;101183.47;4885612;29;20077;-72
2022/02/21 01:52:27;;;;;;;32.33;21.63;;;;;;;8.54;100.00;101177.44;4880092;29;20393;-72
2022/02/21 01:55:14;;;;;;;32.35;21.52;;;;;;;8.43;100.00;101186.16;4879844;29;20025;-72
2022/02/21 01:57:59;;;;;;;33.13;22.33;;;;;;;8.38;100.00;101183.56;4879990;29;20051;-73
2022/02/21 02:00:45;;;;;;;33.65;22.08;;;;;;;8.59;100.00;101188.75;4880465;29;20044;-71
2022/02/21 02:03:31;;;;;;;37.08;22.77;;;;;;;8.49;100.00;101183.53;4880055;29;20052;-71
2022/02/21 02:06:17;;;;;;;33.25;20.88;;;;;;;8.53;100.00;101175.69;4879519;29;20356;-71
2022/02/21 02:09:03;;;;;;;35.65;22.63;;;;;;;8.77;100.00;101175.63;4879998;29;20370;-71
2022/02/21 02:11:51;;;;;;;31.75;21.65;;;;;;;8.96;100.00;101179.06;4879710;29;20048;-72
2022/02/21 02:14:39;;;;;;;33.38;20.77;;;;;;;8.57;100.00;101166.13;4880304;29;20039;-72
2022/02/21 02:17:25;;;;;;;31.90;20.90;;;;;;;8.19;100.00;101163.53;4879557;29;20052;-72
2022/02/21 02:20:13;;;;;;;34.22;21.33;;;;;;;8.54;100.00;101160.88;4879905;29;20092;-72
2022/02/21 02:22:59;;;;;;;34.38;22.45;;;;;;;8.50;100.00;101148.72;4879832;29;20037;-72
2022/02/21 02:25:45;;;;;;;29.73;21.30;;;;;;;7.89;100.00;101150.50;4880251;29;20044;-72
2022/02/21 02:28:31;;;;;;;33.85;22.65;;;;;;;8.02;100.00;101141.78;4880247;29;20048;-72
2022/02/21 02:31:17;;;;;;;33.83;22.50;;;;;;;8.14;100.00;101149.63;4880796;29;20107;-72
2022/02/21 02:34:03;;;;;;;38.28;23.27;;;;;;;8.07;100.00;101147.88;4881474;29;20526;-72
2022/02/21 02:36:49;;;;;;;35.22;23.38;;;;;;;7.90;100.00;101161.78;4883846;29;20037;-72
2022/02/21 02:39:35;;;;;;;37.33;23.95;;;;;;;7.85;100.00;101158.31;4882912;29;20032;-71
2022/02/21 02:42:21;;;;;;;35.65;23.17;;;;;;;7.71;100.00;101157.41;4882859;29;20029;-72
2022/02/21 02:45:07;;;;;;;34.50;22.90;;;;;;;7.68;100.00;101155.69;4883669;29;20120;-72
2022/02/21 02:47:53;;;;;;;33.08;22.33;;;;;;;7.91;100.00;101155.69;4869726;29;20096;-72
2022/02/21 02:50:39;;;;;;;33.83;21.98;;;;;;;8.04;100.00;101157.47;4883453;29;20055;-72
2022/02/21 02:53:25;;;;;;;33.80;21.25;;;;;;;8.22;100.00;101149.63;4869066;29;20025;-72
2022/02/21 02:56:11;;;;;;;34.28;23.45;;;;;;;8.20;100.00;101151.34;4882918;29;20029;-72
2022/02/21 02:58:57;;;;;;;33.67;22.40;;;;;;;8.00;100.00;101150.50;4883299;29;20450;-72
2022/02/21 03:01:43;;;;;;;35.45;22.20;;;;;;;7.46;100.00;101151.31;4882908;29;20378;-72
2022/02/21 03:04:28;;;;;;;34.97;21.73;;;;;;;7.97;100.00;101140.06;4883322;29;20026;-71
2022/02/21 03:07:14;;;;;;;35.85;21.40;;;;;;;8.00;100.00;101146.13;4882727;29;20041;-71
2022/02/21 03:10:00;;;;;;;30.27;19.88;;;;;;;7.62;100.00;101150.47;4883297;29;20048;-71
2022/02/21 03:12:46;;;;;;;31.02;19.73;;;;;;;7.76;100.00;101147.88;4882429;29;20070;-71
2022/02/21 03:15:32;;;;;;;32.63;20.30;;;;;;;7.74;100.00;101147.00;4868887;29;20025;-72
2022/02/21 03:18:17;;;;;;;29.02;19.73;;;;;;;7.78;100.00;101148.75;4869471;29;20029;-72
2022/02/21 03:21:03;;;;;;;33.13;20.52;;;;;;;7.28;100.00;101147.78;4882032;29;20029;-72
2022/02/21 03:23:49;;;;;;;33.85;20.65;;;;;;;7.66;100.00;101149.59;4882169;29;20032;-71
2022/02/21 03:26:35;;;;;;;31.83;19.85;;;;;;;7.75;100.00;101140.91;4883034;29;20048;-72
2022/02/21 03:29:21;;;;;;;28.90;19.60;;;;;;;7.34;100.00;101139.97;4882610;29;20111;-72
2022/02/21 03:32:07;;;;;;;31.42;19.88;;;;;;;6.94;100.00;101132.91;4882883;29;20037;-72
2022/02/21 03:34:53;;;;;;;32.72;20.63;;;;;;;7.14;100.00;101134.72;4881403;29;20164;-72
2022/02/21 03:37:38;;;;;;;32.83;19.80;;;;;;;7.16;100.00;101130.38;4882259;29;20033;-72
2022/02/21 03:40:24;;;;;;;33.63;20.73;;;;;;;7.35;100.00;101128.72;4881986;29;20072;-71
2022/02/21 03:43:10;;;;;;;33.83;20.40;;;;;;;6.95;100.00;101124.25;4882125;29;20036;-72
2022/02/21 03:45:56;;;;;;;34.45;21.83;;;;;;;7.44;100.00;101137.38;4881463;29;20029;-72
2022/02/21 03:48:41;;;;;;;29.50;19.35;;;;;;;7.18;100.00;101133.88;4882267;29;20045;-73
2022/02/21 03:51:27;;;;;;;32.13;18.58;;;;;;;7.07;100.00;101129.50;4882980;29;20024;-71
2022/02/21 03:54:13;;;;;;;29.15;18.88;;;;;;;7.04;100.00;101135.56;4881772;29;20092;-72
2022/02/21 03:56:59;;;;;;;30.02;19.10;;;;;;;7.13;100.00;101117.38;4881697;29;20029;-72
2022/02/21 03:59:45;;;;;;;29.95;17.88;;;;;;;7.07;100.00;101113.88;4880919;29;20112;-72
2022/02/21 04:02:30;;;;;;;28.77;18.40;;;;;;;7.37;100.00;101109.59;4881983;29;20111;-72
2022/02/21 04:05:16;;;;;;;28.73;17.92;;;;;;;7.67;100.00;101103.56;4881841;29;20037;-71
2022/02/21 04:08:02;;;;;;;26.92;17.17;;;;;;;7.66;100.00;101112.22;4882035;29;20119;-72
2022/02/21 04:10:48;;;;;;;27.70;16.77;;;;;;;7.69;100.00;101113.13;4881282;29;20060;-72
2022/02/21 04:13:33;;;;;;;26.10;17.13;;;;;;;7.59;100.00;101113.97;4881108;29;20045;-72
2022/02/21 04:16:19;;;;;;;26.05;16.65;;;;;;;7.36;100.00;101110.44;4881419;29;20032;-72
2022/02/21 04:19:05;;;;;;;26.63;15.93;;;;;;;7.71;100.00;101098.31;4881437;29;20188;-72
2022/02/21 04:21:51;;;;;;;26.85;17.15;;;;;;;7.31;100.00;101093.09;4881990;29;20033;-71
2022/02/21 04:24:37;;;;;;;26.90;16.23;;;;;;;7.57;100.00;101087.03;4881696;29;20446;-72
2022/02/21 04:27:23;;;;;;;27.67;16.67;;;;;;;7.99;100.00;101076.56;4880568;29;20362;-71
2022/02/21 04:30:09;;;;;;;25.63;16.10;;;;;;;7.87;100.00;101067.88;4882251;29;20096;-72
2022/02/21 04:32:56;;;;;;;26.15;15.90;;;;;;;7.78;100.00;101060.94;4881907;29;20048;-73
2022/02/21 04:35:41;;;;;;;25.27;15.75;;;;;;;7.74;100.00;101064.41;4881029;29;20108;-72
2022/02/21 04:38:27;;;;;;;22.50;15.85;;;;;;;7.74;100.00;101061.81;4881800;29;20056;-71
2022/02/21 04:41:13;;;;;;;22.70;14.32;;;;;;;7.75;100.00;101060.06;4880939;29;20138;-73
2022/02/21 04:43:59;;;;;;;28.17;15.93;;;;;;;7.99;100.00;101063.53;4881892;29;20420;-72
2022/02/21 04:46:44;;;;;;;32.25;15.85;;;;;;;7.61;100.00;101067.91;4880286;29;20071;-72
2022/02/21 04:49:30;;;;;;;24.98;16.65;;;;;;;7.59;100.00;101067.03;4881422;29;20435;-72
2022/02/21 04:52:16;;;;;;;23.85;15.32;;;;;;;7.70;100.00;101077.44;4880984;29;20049;-72
2022/02/21 04:55:05;;;;;;;25.60;16.58;;;;;;;7.79;100.00;101080.03;4882356;29;20028;-72
2022/02/21 04:57:50;;;;;;;25.67;16.60;;;;;;;7.78;100.00;101075.72;4867341;29;20074;-72
2022/02/21 05:00:36;;;;;;;27.30;16.88;;;;;;;7.71;100.00;101072.25;4880659;29;20029;-72
2022/02/21 05:03:22;;;;;;;28.08;16.92;;;;;;;8.04;100.00;101063.53;4881247;29;20482;-72
2022/02/21 05:06:08;;;;;;;30.95;18.05;;;;;;;7.73;100.00;101059.19;4867830;29;20093;-71
2022/02/21 05:08:54;;;;;;;26.40;16.92;;;;;;;8.07;100.00;101051.31;4881224;29;20041;-73
2022/02/21 05:11:40;;;;;;;28.67;17.52;;;;;;;7.71;100.00;101045.28;4880291;29;20063;-72
2022/02/21 05:14:26;;;;;;;29.35;17.08;;;;;;;7.93;100.00;101029.63;4880517;29;20029;-72
2022/02/21 05:17:11;;;;;;;24.38;15.85;;;;;;;7.88;100.00;101022.69;4880827;29;20036;-72
2022/02/21 05:19:57;;;;;;;28.10;16.67;;;;;;;7.93;100.00;101024.41;4880686;29;20386;-72
2022/02/21 05:22:43;;;;;;;25.02;15.77;;;;;;;8.00;100.00;101018.28;4866547;29;20029;-73
2022/02/21 05:25:28;;;;;;;22.67;15.43;;;;;;;7.97;100.00;101014.81;4880176;29;20039;-72
2022/02/21 05:28:14;;;;;;;24.42;15.32;;;;;;;7.76;100.00;101018.31;4880280;29;20117;-71
2022/02/21 05:31:00;;;;;;;23.88;15.05;;;;;;;7.81;100.00;101023.56;4880723;29;20021;-72
2022/02/21 05:33:45;;;;;;;28.92;16.00;;;;;;;7.98;100.00;101034.81;4880045;29;20092;-72
2022/02/21 05:36:31;;;;;;;25.30;15.85;;;;;;;7.71;100.00;101027.91;4880209;29;20033;-73
2022/02/21 05:39:18;;;;;;;23.60;14.77;;;;;;;7.78;100.00;101031.38;4866700;29;20029;-72
2022/02/21 05:42:04;;;;;;;25.40;16.38;;;;;;;8.01;100.00;101030.47;4880103;29;20037;-72
2022/02/21 05:44:50;;;;;;;22.65;15.10;;;;;;;7.70;100.00;101027.91;4867817;29;20343;-73
2022/02/21 05:47:35;;;;;;;21.58;15.70;;;;;;;7.89;100.00;101029.63;4879706;29;20075;-72
2022/02/21 05:50:21;;;;;;;28.77;16.88;;;;;;;8.11;100.00;101023.47;4880197;29;20108;-71
2022/02/21 05:53:07;;;;;;;41.28;22.70;;;;;;;7.70;100.00;101018.34;4866787;29;20128;-72
2022/02/21 05:55:53;;;;;;;39.35;22.42;;;;;;;7.71;100.00;101014.88;4880399;29;20028;-72
2022/02/21 05:58:39;;;;;;;31.65;19.30;;;;;;;7.50;100.00;101021.84;4866238;29;20432;-72
2022/02/21 06:01:25;;;;;;;23.50;16.42;;;;;;;7.72;100.00;101010.53;4880143;29;20065;-71
2022/02/21 06:04:11;;;;;;;25.23;16.33;;;;;;;7.70;100.00;101007.03;4879731;29;20421;-71
2022/02/21 06:06:56;;;;;;;21.50;14.85;;;;;;;7.94;100.00;101010.50;4875447;29;20032;-70
2022/02/21 06:09:42;;;;;;;24.83;15.52;;;;;;;7.75;100.00;101000.06;4880251;29;20032;-72
2022/02/21 06:12:28;;;;;;;26.85;15.90;;;;;;;7.99;100.00;101000.91;5110439;23;20421;-71
2022/02/21 06:15:14;;;;;;;25.80;15.88;;;;;;;7.42;100.00;101001.00;4927064;29;20052;-69
2022/02/21 06:18:00;;;;;;;23.70;15.82;;;;;;;8.04;100.00;100993.06;4921229;29;20528;-70
2022/02/21 06:20:46;;;;;;;22.90;14.77;;;;;;;7.73;100.00;100988.78;4919834;29;20375;-71
2022/02/21 06:23:31;;;;;;;23.02;14.52;;;;;;;7.87;100.00;100980.06;4918692;29;20044;-70
2022/02/21 06:26:17;;;;;;;26.63;15.50;;;;;;;7.97;100.00;100981.78;4919323;29;20058;-71
2022/02/21 06:29:03;;;;;;;23.90;14.52;;;;;;;7.90;100.00;100982.66;4919125;29;20043;-70
2022/02/21 06:31:49;;;;;;;21.10;13.60;;;;;;;7.83;100.00;100977.44;4919307;29;20048;-70
2022/02/21 06:34:34;;;;;;;20.08;13.68;;;;;;;7.92;100.00;100980.06;4918215;29;20031;-70
2022/02/21 06:37:20;;;;;;;20.65;13.55;;;;;;;8.23;100.00;100966.06;4919432;29;20036;-70
2022/02/21 06:40:07;;;;;;;20.90;13.80;;;;;;;8.16;100.00;100972.16;4918943;29;20024;-71
2022/02/21 06:42:53;;;;;;;23.15;13.77;;;;;;;8.24;100.00;100965.19;4918832;29;20028;-71
2022/02/21 06:45:39;;;;;;;20.30;13.88;;;;;;;7.89;100.00;100960.06;4905564;29;20103;-70
2022/02/21 06:48:25;;;;;;;22.75;13.80;;;;;;;8.54;100.00;100962.44;4918195;29;20032;-69
2022/02/21 06:51:11;;;;;;;25.15;14.95;;;;;;;8.66;100.00;100954.53;4918864;29;20060;-70
2022/02/21 06:53:56;;;;;;;24.08;13.93;;;;;;;8.62;100.00;100963.25;4905080;29;20119;-70
2022/02/21 06:56:42;;;;;;;22.15;14.27;;;;;;;8.76;100.00;100961.44;4919070;29;20401;-70
2022/02/21 06:59:28;;;;;;;24.08;15.43;;;;;;;8.06;100.00;100952.19;4918695;29;20028;-70
2022/02/21 07:02:14;;;;;;;23.52;15.02;;;;;;;8.49;100.00;100953.75;4905960;29;20043;-70
2022/02/21 07:05:00;;;;;;;27.10;16.05;;;;;;;8.77;100.00;100947.50;4918414;29;20047;-70
2022/02/21 07:07:46;;;;;;;28.08;16.85;;;;;;;9.16;100.00;100937.63;4918421;29;20593;-69
2022/02/21 07:10:31;;;;;;;27.50;18.52;;;;;;;8.92;100.00;100944.78;4918240;29;20039;-70
2022/02/21 07:13:17;;;;;;;27.73;16.30;;;;;;;9.00;100.00;100945.56;4917983;29;20401;-70
2022/02/21 07:16:04;;;;;;;22.40;15.18;;;;;;;9.37;100.00;100941.81;4889698;29;20036;-71
2022/02/21 07:18:49;;;;;;;25.88;17.45;;;;;;;9.18;100.00;100942.84;4894622;29;20032;-69
2022/02/21 07:21:35;;;;;;;29.00;17.60;;;;;;;9.52;100.00;100941.63;4898481;29;20110;-69
2022/02/21 07:24:21;;;;;;;28.17;17.88;;;;;;;9.32;100.00;100934.00;4911529;29;20115;-69
2022/02/21 07:27:07;;;;;;;27.33;17.63;;;;;;;9.46;100.00;100928.63;4912090;29;20916;-70
2022/02/21 07:29:52;;;;;;;33.28;19.38;;;;;;;9.70;100.00;100924.00;4911129;29;20024;-69
2022/02/21 07:32:38;;;;;;;29.90;18.63;;;;;;;9.64;100.00;100923.19;4911775;29;20126;-70
2022/02/21 07:35:25;;;;;;;33.05;18.33;;;;;;;10.15;100.00;100920.03;4911334;29;20028;-70
2022/02/21 07:38:10;;;;;;;29.33;17.80;;;;;;;10.23;100.00;100912.06;4912844;29;21069;-70
2022/02/21 07:40:56;;;;;;;30.20;17.92;;;;;;;10.05;100.00;100902.72;4912007;29;20063;-70
2022/02/21 07:43:42;;;;;;;34.17;17.52;;;;;;;10.44;100.00;100896.09;4899510;29;20083;-70
2022/02/21 07:46:28;;;;;;;28.83;17.55;;;;;;;9.96;100.00;100895.81;4909604;29;20107;-70
2022/02/21 07:49:14;;;;;;;25.55;17.23;;;;;;;10.02;100.00;100885.25;4912154;29;20060;-69
2022/02/21 07:51:59;;;;;;;30.20;17.88;;;;;;;10.13;100.00;100886.91;4896462;29;20039;-70
2022/02/21 07:54:45;;;;;;;23.48;16.15;;;;;;;10.42;100.00;100875.16;4897885;29;20032;-70
2022/02/21 07:57:31;;;;;;;24.77;15.48;;;;;;;10.81;100.00;100873.69;4909643;29;20043;-70
2022/02/21 08:00:20;;;;;;;23.02;13.93;;;;;;;10.60;100.00;100874.03;4899059;29;20028;-69
2022/02/21 08:03:06;;;;;;;18.80;13.00;;;;;;;10.90;100.00;100865.66;4910517;29;20131;-70
2022/02/21 08:05:55;;;;;;;21.30;13.23;;;;;;;10.90;100.00;100850.81;4911135;29;20032;-71
2022/02/21 08:08:41;;;;;;;23.50;12.73;;;;;;;11.17;100.00;100844.22;4909242;29;20051;-70
2022/02/21 08:11:26;;;;;;;18.40;12.00;;;;;;;11.21;100.00;100854.63;4910825;29;20389;-69
2022/02/21 08:14:12;;;;;;;18.98;12.55;;;;;;;11.44;100.00;100847.19;4911130;29;20059;-69
2022/02/21 08:16:58;;;;;;;17.55;11.30;;;;;;;12.02;100.00;100844.31;4910585;29;20047;-70
2022/02/21 08:19:44;;;;;;;21.38;11.20;;;;;;;12.01;100.00;100835.56;4911969;29;20036;-70
2022/02/21 08:22:32;;;;;;;17.98;10.82;;;;;;;12.32;100.00;100839.25;4911110;29;20056;-70
2022/02/21 08:25:18;;;;;;;20.15;11.55;;;;;;;12.70;100.00;100839.22;4911530;29;20468;-70
2022/02/21 08:28:05;;;;;;;13.75;9.90;;;;;;;13.12;100.00;100829.41;4910571;29;20478;-71
2022/02/21 08:30:51;;;;;;;17.33;10.63;;;;;;;12.87;100.00;100831.75;4897686;29;20040;-70
2022/02/21 08:33:37;;;;;;;14.00;10.10;;;;;;;13.28;100.00;100822.84;4911538;29;20396;-70
2022/02/21 08:36:22;;;;;;;16.63;10.88;;;;;;;13.31;100.00;100831.53;4908313;29;20100;-70
2022/02/21 08:39:08;;;;;;;17.23;11.05;;;;;;;13.72;97.02;100830.41;4910798;29;20040;-70
2022/02/21 08:41:54;;;;;;;17.02;10.90;;;;;;;13.75;95.22;100817.16;4908371;29;20032;-70
2022/02/21 08:44:40;;;;;;;15.93;10.77;;;;;;;13.79;97.19;100819.63;4911129;29;20032;-70
2022/02/21 08:47:26;;;;;;;17.38;12.40;;;;;;;14.02;93.68;100811.94;4907468;29;20024;-71
2022/02/21 08:50:12;;;;;;;14.20;9.85;;;;;;;13.32;99.29;100809.59;4897064;29;20044;-70
2022/02/21 08:52:58;;;;;;;16.88;10.50;;;;;;;13.79;97.56;100811.72;4910480;29;20099;-70
2022/02/21 08:55:44;;;;;;;17.52;11.85;;;;;;;13.95;95.80;100813.00;4897713;29;20039;-69
2022/02/21 08:58:30;;;;;;;16.35;11.27;;;;;;;13.88;96.66;100807.97;4909738;29;20031;-70
2022/02/21 09:01:16;;;;;;;16.17;10.68;;;;;;;13.87;97.96;100809.72;4910614;29;20039;-70
2022/02/21 09:04:04;;;;;;;15.98;10.52;;;;;;;14.00;96.11;100811.13;4908364;29;20377;-70
2022/02/21 09:06:50;;;;;;;12.70;9.07;;;;;;;14.22;92.00;100806.94;4897708;29;20099;-71
2022/02/21 09:09:36;;;;;;;11.63;8.80;;;;;;;14.78;88.70;100813.91;4897064;29;20040;-72
2022/02/21 09:12:22;;;;;;;13.25;8.85;;;;;;;14.88;86.98;100802.13;4909897;29;20087;-71
2022/02/21 09:15:08;;;;;;;15.07;8.50;;;;;;;15.10;83.67;100799.63;4910018;29;20048;-72
2022/02/21 09:17:56;;;;;;;12.00;7.40;;;;;;;15.30;83.03;100799.78;4909791;29;20041;-72
2022/02/21 09:20:43;;;;;;;13.90;7.47;;;;;;;14.97;81.36;100790.41;4910810;29;20036;-72
2022/02/21 09:23:28;;;;;;;11.23;7.07;;;;;;;15.27;80.10;100776.13;4909446;29;20024;-71
2022/02/21 09:26:14;;;;;;;11.80;7.35;;;;;;;15.13;79.11;100783.69;4911090;29;20048;-72
2022/02/21 09:29:00;;;;;;;10.07;6.97;;;;;;;14.97;78.48;100782.50;4907484;29;20028;-71
2022/02/21 09:31:46;;;;;;;11.50;6.60;;;;;;;14.88;79.50;100774.91;4909774;29;20443;-71
2022/02/21 09:34:32;;;;;;;12.70;7.10;;;;;;;14.53;84.05;100764.66;4909316;29;20020;-71
2022/02/21 09:37:18;;;;;;;9.98;7.13;;;;;;;14.61;83.00;100755.59;4910710;29;20024;-72
2022/02/21 09:40:10;;;;;;;10.80;7.80;;;;;;;15.00;81.07;100756.00;4909576;29;20525;-72
2022/02/21 09:42:59;;;;;;;8.00;6.30;;;;;;;14.84;80.34;100749.53;4908293;29;20787;-71
2022/02/21 09:45:45;;;;;;;8.70;6.38;;;;;;;14.49;82.66;100734.91;4910626;29;20035;-72
2022/02/21 09:48:32;;;;;;;8.18;6.20;;;;;;;14.96;81.92;100735.94;4909364;29;20364;-72
2022/02/21 09:51:17;;;;;;;9.13;6.55;;;;;;;15.43;77.63;100728.97;4907026;29;20039;-71
2022/02/21 09:54:03;;;;;;;7.47;5.40;;;;;;;15.25;76.70;100724.31;4907925;29;20031;-72
2022/02/21 09:56:51;;;;;;;10.20;5.80;;;;;;;15.24;77.80;100722.59;4910121;29;20024;-72
2022/02/21 09:59:37;;;;;;;8.10;5.80;;;;;;;15.22;77.03;100714.75;4909005;29;20040;-72
2022/02/21 10:02:29;;;;;;;8.40;5.00;;;;;;;14.94;79.22;100713.16;4909650;29;20071;-71
2022/02/21 10:05:28;;;;;;;6.82;4.82;;;;;;;15.29;77.06;100710.09;4909963;29;20032;-72
2022/02/21 10:08:15;;;;;;;9.85;5.47;;;;;;;15.16;77.85;100703.53;4911108;29;20408;-72
2022/02/21 10:11:01;;;;;;;5.88;4.13;;;;;;;15.34;76.11;100705.53;4896441;29;20032;-72
2022/02/21 10:13:56;;;;;;;6.65;4.30;;;;;;;15.47;75.26;100699.75;4909705;29;20048;-72
2022/02/21 10:16:46;;;;;;;8.15;4.80;;;;;;;14.84;79.49;100694.16;4909749;29;20548;-71
2022/02/21 10:19:39;;;;;;;6.53;5.10;;;;;;;15.33;77.20;100680.91;4908306;29;20449;-71
2022/02/21 10:22:27;;;;;;;15.25;10.93;;;;;;;15.40;76.62;100677.16;4907271;29;20032;-71
2022/02/21 10:25:18;;;;;;;11.35;8.38;;;;;;;15.00;78.03;100676.00;4897333;29;20040;-71
2022/02/21 10:28:03;;;;;;;5.05;3.90;;;;;;;15.15;77.78;100660.44;4907923;29;20055;-72
2022/02/21 10:31:12;;;;;;;7.13;4.57;;;;;;;15.39;75.28;100654.28;4913416;29;20524;-71
2022/02/21 10:34:03;;;;;;;5.63;4.43;;;;;;;15.42;76.88;100658.59;4895240;29;20024;-71
2022/02/21 10:36:49;;;;;;;6.20;4.00;;;;;;;15.47;75.52;100639.00;4896858;29;20404;-71
2022/02/21 10:39:35;;;;;;;7.70;4.85;;;;;;;15.78;74.48;100639.53;4908500;29;20036;-71
2022/02/21 10:42:25;;;;;;;6.25;4.32;;;;;;;15.77;74.69;100634.31;4909689;29;20096;-72
2022/02/21 10:45:17;;;;;;;6.40;4.25;;;;;;;15.91;71.54;100627.56;4910843;29;20043;-71
2022/02/21 10:48:05;;;;;;;5.90;4.32;;;;;;;15.63;72.43;100624.28;4894404;29;20039;-71
2022/02/21 10:51:00;;;;;;;5.78;4.10;;;;;;;15.61;72.93;100612.94;4909386;29;20043;-72
2022/02/21 10:53:49;;;;;;;6.20;4.40;;;;;;;15.78;74.83;100605.19;4908929;29;20032;-72
2022/02/21 10:56:44;;;;;;;9.00;4.35;;;;;;;15.91;71.08;100606.41;4911360;29;20528;-71
2022/02/21 10:59:31;;;;;;;5.55;4.20;;;;;;;15.91;71.32;100587.91;4912276;29;20032;-72
2022/02/21 11:02:20;;;;;;;7.95;4.15;;;;;;;16.02;70.38;100579.53;4911994;29;20032;-71
2022/02/21 11:05:11;;;;;;;5.85;4.20;;;;;;;16.35;69.00;100576.34;4911641;29;20436;-72
2022/02/21 11:07:57;;;;;;;7.82;4.30;;;;;;;16.02;69.31;100568.97;4909818;29;20342;-76
2022/02/21 11:10:44;;;;;;;11.48;5.05;;;;;;;15.48;74.63;100569.47;4899011;29;20032;-71
2022/02/21 11:13:31;;;;;;;6.80;4.60;;;;;;;16.00;72.94;100562.91;4912143;29;20111;-71
2022/02/21 11:16:17;;;;;;;5.50;4.63;;;;;;;15.74;72.33;100560.47;4912327;29;20024;-71
2022/02/21 11:19:04;;;;;;;7.32;4.25;;;;;;;16.50;68.80;100545.75;4897383;29;20036;-70
2022/02/21 11:21:51;;;;;;;5.97;4.38;;;;;;;16.36;68.27;100540.19;4899516;29;20038;-71
2022/02/21 11:24:43;;;;;;;5.65;4.18;;;;;;;16.42;67.40;100542.59;4898740;29;20067;-71
2022/02/21 11:27:42;;;;;;;4.97;4.18;;;;;;;17.27;63.75;100529.78;4910715;29;20031;-71
2022/02/21 11:30:29;;;;;;;7.07;3.92;;;;;;;17.14;63.65;100531.31;4898888;29;20042;-70
2022/02/21 11:33:18;;;;;;;5.07;4.03;;;;;;;17.49;62.42;100526.06;4899271;29;20064;-71
2022/02/21 11:36:13;;;;;;;10.10;4.30;;;;;;;18.00;60.18;100522.59;4910277;29;20314;-71
2022/02/21 11:38:59;;;;;;;7.18;4.47;;;;;;;17.60;60.14;100522.91;4912036;29;20038;-74
2022/02/21 11:41:45;;;;;;;6.07;4.75;;;;;;;17.38;60.82;100522.19;4912333;29;20050;-70
2022/02/21 11:44:53;;;;;;;4.82;3.92;;;;;;;16.65;63.10;100508.03;4911104;29;20451;-70
2022/02/21 11:47:47;;;;;;;6.93;4.80;;;;;;;16.82;62.45;100508.13;4897759;29;20036;-70
2022/02/21 11:50:32;;;;;;;5.88;4.20;;;;;;;15.53;70.70;100490.91;4911975;29;20519;-70
2022/02/21 11:53:23;;;;;;;7.45;4.20;;;;;;;17.18;63.16;100491.38;4898435;29;20354;-72
2022/02/21 11:56:09;;;;;;;6.70;4.05;;;;;;;17.89;59.68;100487.84;4911372;29;20076;-70
2022/02/21 11:58:54;;;;;;;7.43;4.40;;;;;;;17.73;58.42;100468.38;4896317;29;20448;-70
2022/02/21 12:01:49;;;;;;;6.72;5.20;;;;;;;17.06;59.12;100475.22;4898909;29;20047;-70
2022/02/21 12:04:56;;;;;;;5.47;4.13;;;;;;;17.57;56.22;100470.91;4910875;29;20062;-71
2022/02/21 12:07:42;;;;;;;5.13;3.83;;;;;;;17.69;56.24;100474.75;4910819;29;20479;-71
2022/02/21 12:10:28;;;;;;;6.40;4.07;;;;;;;17.34;56.51;100465.00;4908088;29;20063;-71
2022/02/21 12:13:14;;;;;;;9.50;4.20;;;;;;;17.33;55.29;100455.34;4909472;29;20832;-70
2022/02/21 12:16:10;;;;;;;7.60;4.25;;;;;;;18.33;54.92;100447.47;4895723;29;20365;-71
2022/02/21 12:19:01;;;;;;;8.57;5.30;;;;;;;17.85;55.81;100442.06;4897383;29;20445;-71
2022/02/21 12:22:12;;;;;;;7.13;5.38;;;;;;;17.08;56.49;100437.16;4911976;29;20035;-71
2022/02/21 12:25:12;;;;;;;5.70;4.43;;;;;;;17.70;55.64;100436.72;4895196;29;20441;-71
2022/02/21 12:28:13;;;;;;;5.05;3.95;;;;;;;17.46;54.93;100436.16;4896564;29;20061;-70
2022/02/21 12:30:59;;;;;;;7.63;4.00;;;;;;;18.00;53.06;100424.53;4910882;29;20119;-71
2022/02/21 12:33:45;;;;;;;4.93;3.70;;;;;;;18.06;51.76;100422.44;4911084;29;20036;-71
2022/02/21 12:36:39;;;;;;;4.80;3.65;;;;;;;18.21;52.41;100420.75;4910530;29;20032;-71
2022/02/21 12:39:26;;;;;;;4.82;4.10;;;;;;;18.40;52.08;100419.72;4910562;29;20116;-72
2022/02/21 12:42:16;;;;;;;7.38;3.97;;;;;;;18.16;52.34;100412.16;4897585;29;20059;-70